Time;durP1;ratioP1;P1;durP2;ratioP2;P2;SDS_P1;SDS_P2;PMS_P1;PMS_P2;Temp;Humidity;BMP_temperature;BMP_pressure;BME280_temperature;BME280_humidity;BME280_pressure;Samples;Min_cycle;Max_cycle;Signal;HPM_P1;HPM_P2
2023/03/09 00:00:58;;;;;;;1.77;0.70;;;;;;;;;;5020157;28;20441;-72
2023/03/09 00:03:26;;;;;;;0.73;0.73;;;;;;;;;;5024889;28;20438;-72
2023/03/09 00:05:57;;;;;;;0.30;0.30;;;;;;;;;;5020183;28;20521;-72
2023/03/09 00:08:25;;;;;;;0.30;0.30;;;;;;;;;;5026718;28;20435;-72
2023/03/09 00:10:52;;;;;;;0.40;0.40;;;;;;;;;;5018826;28;20439;-72
2023/03/09 00:13:21;;;;;;;0.20;0.20;;;;;;;;;;5025823;28;21082;-73
2023/03/09 00:15:51;;;;;;;0.40;0.40;;;;;;;;;;5019537;28;20427;-73
2023/03/09 00:18:22;;;;;;;2.50;1.02;;;;;;;;;;5022552;28;20494;-73
2023/03/09 00:20:49;;;;;;;0.43;0.43;;;;;;;;;;5019442;28;20435;-73
2023/03/09 00:23:19;;;;;;;0.45;0.45;;;;;;;;;;5015777;28;20516;-74
2023/03/09 00:25:46;;;;;;;0.10;0.10;;;;;;;;;;5024797;28;20434;-74
2023/03/09 00:28:13;;;;;;;0.28;0.28;;;;;;;;;;5021972;28;20427;-74
2023/03/09 00:30:40;;;;;;;0.50;0.50;;;;;;;;;;5028063;28;20430;-74
2023/03/09 00:33:07;;;;;;;0.10;0.10;;;;;;;;;;5027325;28;20580;-74
2023/03/09 00:35:35;;;;;;;0.30;0.30;;;;;;;;;;5028690;28;20430;-74
2023/03/09 00:38:03;;;;;;;0.20;0.20;;;;;;;;;;5028297;28;20437;-75
2023/03/09 00:40:30;;;;;;;0.43;0.43;;;;;;;;;;5029466;28;20442;-75
2023/03/09 00:42:57;;;;;;;0.17;0.17;;;;;;;;;;5025480;28;20534;-74
2023/03/09 00:45:25;;;;;;;0.13;0.10;;;;;;;;;;5030290;28;20457;-74
2023/03/09 00:47:54;;;;;;;0.10;0.10;;;;;;;;;;5036478;28;20432;-73
2023/03/09 00:50:22;;;;;;;0.10;0.10;;;;;;;;;;5029423;28;20448;-73
2023/03/09 00:52:54;;;;;;;0.30;0.30;;;;;;;;;;5025725;28;20967;-73
2023/03/09 00:55:21;;;;;;;0.10;0.10;;;;;;;;;;5011343;28;20437;-73
2023/03/09 00:57:49;;;;;;;0.40;0.40;;;;;;;;;;5029036;28;20431;-74
2023/03/09 01:00:16;;;;;;;0.20;0.20;;;;;;;;;;5031940;28;20485;-73
2023/03/09 01:02:43;;;;;;;0.10;0.10;;;;;;;;;;5027548;28;20430;-74
2023/03/09 01:05:13;;;;;;;0.20;0.20;;;;;;;;;;5032365;28;20457;-73
2023/03/09 01:07:42;;;;;;;1.10;0.20;;;;;;;;;;5030862;28;20462;-73
2023/03/09 01:10:11;;;;;;;3.10;0.30;;;;;;;;;;5033014;28;20933;-73
2023/03/09 01:12:39;;;;;;;0.40;0.10;;;;;;;;;;5025870;28;20424;-73
2023/03/09 01:15:09;;;;;;;0.10;0.10;;;;;;;;;;5022468;28;20429;-73
2023/03/09 01:17:36;;;;;;;0.30;0.30;;;;;;;;;;5013136;28;20444;-73
2023/03/09 01:20:04;;;;;;;0.00;0.00;;;;;;;;;;5025539;28;20435;-73
2023/03/09 01:22:31;;;;;;;0.10;0.10;;;;;;;;;;5029401;28;20431;-73
2023/03/09 01:24:58;;;;;;;0.00;0.00;;;;;;;;;;5023193;28;20851;-74
2023/03/09 01:27:28;;;;;;;0.10;0.10;;;;;;;;;;5026239;28;20426;-73
2023/03/09 01:29:55;;;;;;;0.10;0.10;;;;;;;;;;5023177;28;20442;-74
2023/03/09 01:32:25;;;;;;;0.00;0.00;;;;;;;;;;5022552;28;20517;-73
2023/03/09 01:34:56;;;;;;;0.10;0.10;;;;;;;;;;5026548;28;22119;-73
2023/03/09 01:37:23;;;;;;;0.05;0.05;;;;;;;;;;5027854;28;20532;-73
2023/03/09 01:39:50;;;;;;;0.10;0.10;;;;;;;;;;5024074;28;20433;-73
2023/03/09 01:42:17;;;;;;;0.10;0.10;;;;;;;;;;5025186;28;20940;-74
2023/03/09 01:44:44;;;;;;;0.40;0.10;;;;;;;;;;5018991;28;20439;-73
2023/03/09 01:47:14;;;;;;;1.00;0.40;;;;;;;;;;5027881;28;20438;-74
2023/03/09 01:49:49;;;;;;;0.00;0.00;;;;;;;;;;5025980;28;20430;-74
2023/03/09 01:52:22;;;;;;;0.00;0.00;;;;;;;;;;5024998;28;20437;-73
2023/03/09 01:54:56;;;;;;;0.10;0.10;;;;;;;;;;5020666;28;20435;-72
2023/03/09 01:57:32;;;;;;;0.05;0.05;;;;;;;;;;5024375;28;20524;-72
2023/03/09 02:00:08;;;;;;;0.10;0.10;;;;;;;;;;5023741;28;20427;-73
2023/03/09 02:02:38;;;;;;;0.20;0.20;;;;;;;;;;5023270;28;20546;-74
2023/03/09 02:05:07;;;;;;;0.30;0.30;;;;;;;;;;5024141;28;20441;-73
2023/03/09 02:07:36;;;;;;;0.20;0.20;;;;;;;;;;5017963;28;20459;-73
2023/03/09 02:10:04;;;;;;;0.10;0.10;;;;;;;;;;5022151;28;20481;-73
2023/03/09 02:12:34;;;;;;;0.20;0.20;;;;;;;;;;5025838;28;20427;-73
2023/03/09 02:15:02;;;;;;;0.00;0.00;;;;;;;;;;5025654;28;20461;-72
2023/03/09 02:17:29;;;;;;;0.15;0.15;;;;;;;;;;5026228;28;20479;-73
2023/03/09 02:20:04;;;;;;;0.70;0.20;;;;;;;;;;5025554;28;20442;-73
2023/03/09 02:22:34;;;;;;;0.10;0.10;;;;;;;;;;5027439;28;20529;-73
2023/03/09 02:25:33;;;;;;;0.90;0.50;;;;;;;;;;5019228;28;20479;-72
2023/03/09 02:28:03;;;;;;;0.10;0.10;;;;;;;;;;5021370;28;20440;-72
2023/03/09 02:30:32;;;;;;;0.30;0.30;;;;;;;;;;5024361;28;20516;-73
2023/03/09 02:33:07;;;;;;;0.10;0.10;;;;;;;;;;5024669;28;21424;-73
2023/03/09 02:35:34;;;;;;;0.40;0.40;;;;;;;;;;5023865;28;20481;-73
2023/03/09 02:38:01;;;;;;;0.30;0.30;;;;;;;;;;5020715;28;20427;-73
2023/03/09 02:40:35;;;;;;;0.10;0.10;;;;;;;;;;5019487;28;20422;-73
2023/03/09 02:43:03;;;;;;;0.10;0.10;;;;;;;;;;5019717;28;20435;-72
2023/03/09 02:45:31;;;;;;;0.15;0.15;;;;;;;;;;5023641;28;20861;-73
2023/03/09 02:47:59;;;;;;;0.10;0.10;;;;;;;;;;5024439;28;20459;-73
2023/03/09 02:50:26;;;;;;;0.10;0.10;;;;;;;;;;5019458;28;20429;-73
2023/03/09 02:52:53;;;;;;;0.10;0.10;;;;;;;;;;5024771;28;20914;-72
2023/03/09 02:55:20;;;;;;;0.10;0.10;;;;;;;;;;5023237;28;20949;-72
2023/03/09 02:57:47;;;;;;;0.30;0.30;;;;;;;;;;5022605;28;20995;-72
2023/03/09 03:00:15;;;;;;;0.30;0.30;;;;;;;;;;5020381;28;20466;-72
2023/03/09 03:02:43;;;;;;;0.10;0.10;;;;;;;;;;5027758;28;20457;-72
2023/03/09 03:05:10;;;;;;;0.30;0.30;;;;;;;;;;5028667;28;20435;-72
2023/03/09 03:07:40;;;;;;;0.10;0.10;;;;;;;;;;5020635;28;20432;-72
2023/03/09 03:10:08;;;;;;;0.10;0.10;;;;;;;;;;5025269;28;20436;-73
2023/03/09 03:12:38;;;;;;;2.30;0.30;;;;;;;;;;5021703;28;20435;-73
2023/03/09 03:15:09;;;;;;;0.10;0.10;;;;;;;;;;5025958;28;20435;-73
2023/03/09 03:17:36;;;;;;;0.10;0.10;;;;;;;;;;5022502;28;20438;-73
2023/03/09 03:20:11;;;;;;;0.10;0.10;;;;;;;;;;5021244;28;20435;-72
2023/03/09 03:22:39;;;;;;;0.10;0.10;;;;;;;;;;5017113;28;20438;-72
2023/03/09 03:25:08;;;;;;;0.10;0.10;;;;;;;;;;5022381;28;20431;-72
2023/03/09 03:27:35;;;;;;;0.13;0.13;;;;;;;;;;5022238;28;20530;-72
2023/03/09 03:30:02;;;;;;;0.10;0.10;;;;;;;;;;5020946;28;21472;-72
2023/03/09 03:32:32;;;;;;;0.10;0.10;;;;;;;;;;5022840;28;20449;-72
2023/03/09 03:34:59;;;;;;;0.20;0.20;;;;;;;;;;5023785;28;20462;-72
2023/03/09 03:37:27;;;;;;;0.10;0.10;;;;;;;;;;5022032;28;20490;-72
2023/03/09 03:39:54;;;;;;;0.10;0.00;;;;;;;;;;5020797;28;20433;-72
2023/03/09 03:42:21;;;;;;;0.13;0.13;;;;;;;;;;5026353;28;20427;-72
2023/03/09 03:44:48;;;;;;;0.20;0.20;;;;;;;;;;5020343;28;20436;-71
2023/03/09 03:47:15;;;;;;;0.10;0.10;;;;;;;;;;5019354;28;20434;-72
2023/03/09 03:49:42;;;;;;;0.10;0.10;;;;;;;;;;5022679;28;20562;-72
2023/03/09 03:52:12;;;;;;;0.10;0.10;;;;;;;;;;5019290;28;20913;-73
2023/03/09 03:54:42;;;;;;;0.10;0.10;;;;;;;;;;5020745;28;20440;-71
2023/03/09 03:57:09;;;;;;;0.20;0.20;;;;;;;;;;5020112;28;20439;-72
2023/03/09 03:59:36;;;;;;;0.20;0.20;;;;;;;;;;5020282;28;20437;-72
2023/03/09 04:02:03;;;;;;;0.17;0.17;;;;;;;;;;5024546;28;20435;-72
2023/03/09 04:04:31;;;;;;;0.20;0.20;;;;;;;;;;5024112;28;20450;-72
2023/03/09 04:06:58;;;;;;;0.10;0.10;;;;;;;;;;5018792;28;20473;-72
2023/03/09 04:09:25;;;;;;;0.00;0.00;;;;;;;;;;5023778;28;20435;-72
2023/03/09 04:11:52;;;;;;;0.20;0.20;;;;;;;;;;5017859;28;20438;-72
2023/03/09 04:14:19;;;;;;;0.30;0.30;;;;;;;;;;5020606;28;20441;-72
2023/03/09 04:16:46;;;;;;;0.20;0.20;;;;;;;;;;5020233;28;20437;-72
2023/03/09 04:19:13;;;;;;;0.80;0.10;;;;;;;;;;5022529;28;20793;-72
2023/03/09 04:21:40;;;;;;;0.10;0.10;;;;;;;;;;5021369;28;20427;-72
2023/03/09 04:24:07;;;;;;;0.10;0.10;;;;;;;;;;5023195;28;21123;-71
2023/03/09 04:26:35;;;;;;;0.20;0.20;;;;;;;;;;5012885;28;20433;-71
2023/03/09 04:29:02;;;;;;;0.20;0.20;;;;;;;;;;5017546;28;21137;-72
2023/03/09 04:31:29;;;;;;;0.10;0.10;;;;;;;;;;5023444;28;20451;-72
2023/03/09 04:33:59;;;;;;;0.10;0.10;;;;;;;;;;5023405;28;20466;-72
2023/03/09 04:36:27;;;;;;;0.10;0.10;;;;;;;;;;5013148;28;20432;-72
2023/03/09 04:38:56;;;;;;;0.10;0.10;;;;;;;;;;5020072;28;20472;-72
2023/03/09 04:41:23;;;;;;;0.10;0.10;;;;;;;;;;5023939;28;20778;-72
2023/03/09 04:43:50;;;;;;;0.35;0.30;;;;;;;;;;5024581;28;20427;-72
2023/03/09 04:46:17;;;;;;;0.30;0.30;;;;;;;;;;5022359;28;20446;-72
2023/03/09 04:48:44;;;;;;;0.20;0.20;;;;;;;;;;5019203;28;20438;-72
2023/03/09 04:51:12;;;;;;;0.10;0.10;;;;;;;;;;5023724;28;20435;-72
2023/03/09 04:53:39;;;;;;;0.10;0.10;;;;;;;;;;5024278;28;20441;-72
2023/03/09 04:56:06;;;;;;;0.30;0.30;;;;;;;;;;5016677;28;21124;-72
2023/03/09 04:58:35;;;;;;;0.10;0.10;;;;;;;;;;5024013;28;20435;-71
2023/03/09 05:01:03;;;;;;;0.10;0.10;;;;;;;;;;5026895;28;20427;-71
2023/03/09 05:03:33;;;;;;;0.10;0.10;;;;;;;;;;5023884;28;20435;-71
2023/03/09 05:06:06;;;;;;;0.10;0.10;;;;;;;;;;5027247;28;20427;-71
2023/03/09 05:08:40;;;;;;;0.03;0.03;;;;;;;;;;5025658;28;20917;-71
2023/03/09 05:11:07;;;;;;;2.70;0.13;;;;;;;;;;5021226;28;20440;-71
2023/03/09 05:13:36;;;;;;;0.70;0.70;;;;;;;;;;5026328;28;20435;-72
2023/03/09 05:16:10;;;;;;;0.10;0.10;;;;;;;;;;5025823;28;20791;-72
2023/03/09 05:18:37;;;;;;;0.20;0.20;;;;;;;;;;5024672;28;20533;-72
2023/03/09 05:21:05;;;;;;;0.10;0.10;;;;;;;;;;5024673;28;20808;-72
2023/03/09 05:23:35;;;;;;;0.10;0.10;;;;;;;;;;5019130;28;20937;-72
2023/03/09 05:26:07;;;;;;;0.22;0.22;;;;;;;;;;5021032;28;20449;-71
2023/03/09 05:28:35;;;;;;;0.10;0.10;;;;;;;;;;5026882;28;20438;-72
2023/03/09 05:31:03;;;;;;;0.13;0.13;;;;;;;;;;5023024;28;20474;-71
2023/03/09 05:33:31;;;;;;;0.10;0.10;;;;;;;;;;5023950;28;20438;-71
2023/03/09 05:35:58;;;;;;;0.40;0.40;;;;;;;;;;5036148;28;20436;-71
2023/03/09 05:38:25;;;;;;;0.00;0.00;;;;;;;;;;5030640;28;20430;-71
2023/03/09 05:40:52;;;;;;;0.57;0.28;;;;;;;;;;5027823;28;20435;-71
2023/03/09 05:43:21;;;;;;;1.30;0.40;;;;;;;;;;5030426;28;20521;-72
2023/03/09 05:45:55;;;;;;;0.30;0.30;;;;;;;;;;5022471;28;20429;-71
2023/03/09 05:48:22;;;;;;;0.13;0.13;;;;;;;;;;5023538;28;20743;-71
2023/03/09 05:50:50;;;;;;;0.90;0.40;;;;;;;;;;5022232;28;20439;-71
2023/03/09 05:53:17;;;;;;;0.20;0.20;;;;;;;;;;5022007;28;20521;-71
2023/03/09 05:55:44;;;;;;;0.40;0.40;;;;;;;;;;5026662;28;20468;-71
2023/03/09 05:58:11;;;;;;;0.28;0.28;;;;;;;;;;5041190;28;20435;-72
2023/03/09 06:00:38;;;;;;;0.10;0.10;;;;;;;;;;5027693;28;20781;-71
2023/03/09 06:03:05;;;;;;;0.10;0.10;;;;;;;;;;5020090;28;20427;-71
2023/03/09 06:05:32;;;;;;;0.10;0.10;;;;;;;;;;5013518;28;20495;-72
2023/03/09 06:08:00;;;;;;;0.22;0.22;;;;;;;;;;5013687;28;20951;-71
2023/03/09 06:10:27;;;;;;;4.05;0.47;;;;;;;;;;5014592;28;20961;-72
2023/03/09 06:12:54;;;;;;;0.10;0.10;;;;;;;;;;5019073;28;20522;-72
2023/03/09 06:15:21;;;;;;;0.10;0.10;;;;;;;;;;5022922;28;20443;-70
2023/03/09 06:17:51;;;;;;;0.10;0.10;;;;;;;;;;5017329;28;20941;-70
2023/03/09 06:20:18;;;;;;;0.50;0.40;;;;;;;;;;5023297;28;20441;-70
2023/03/09 06:22:46;;;;;;;2.10;0.20;;;;;;;;;;5020430;28;20892;-70
2023/03/09 06:25:13;;;;;;;1.70;0.80;;;;;;;;;;5021452;28;20519;-70
2023/03/09 06:27:41;;;;;;;0.20;0.20;;;;;;;;;;5014300;28;20852;-70
2023/03/09 06:30:09;;;;;;;0.10;0.10;;;;;;;;;;5017687;28;20896;-70
2023/03/09 06:32:36;;;;;;;0.50;0.43;;;;;;;;;;5022879;28;20431;-70
2023/03/09 06:35:03;;;;;;;1.13;0.55;;;;;;;;;;5018714;28;20439;-70
2023/03/09 06:37:30;;;;;;;0.80;0.40;;;;;;;;;;5028747;28;20423;-70
2023/03/09 06:39:58;;;;;;;0.20;0.20;;;;;;;;;;5017690;28;20442;-70
2023/03/09 06:42:25;;;;;;;0.30;0.25;;;;;;;;;;5027193;28;20776;-70
2023/03/09 06:44:52;;;;;;;0.40;0.40;;;;;;;;;;5029746;28;20427;-70
2023/03/09 06:47:19;;;;;;;0.32;0.32;;;;;;;;;;5023946;28;21118;-70
2023/03/09 06:49:46;;;;;;;0.90;0.80;;;;;;;;;;5016983;28;20454;-70
2023/03/09 06:52:16;;;;;;;0.50;0.50;;;;;;;;;;5023986;28;20438;-70
2023/03/09 06:54:43;;;;;;;0.40;0.40;;;;;;;;;;5018957;28;20447;-71
2023/03/09 06:57:11;;;;;;;0.90;0.38;;;;;;;;;;5019841;28;20430;-70
2023/03/09 06:59:38;;;;;;;0.93;0.82;;;;;;;;;;5014583;28;20440;-70
2023/03/09 07:02:05;;;;;;;0.10;0.10;;;;;;;;;;5019862;28;20431;-71
2023/03/09 07:04:32;;;;;;;0.20;0.20;;;;;;;;;;5019427;28;20501;-70
2023/03/09 07:06:59;;;;;;;1.00;0.50;;;;;;;;;;5014549;28;20440;-70
2023/03/09 07:09:26;;;;;;;0.37;0.37;;;;;;;;;;5013449;28;20437;-70
2023/03/09 07:11:54;;;;;;;16.52;0.60;;;;;;;;;;5020585;28;20500;-70
2023/03/09 07:14:22;;;;;;;0.25;0.25;;;;;;;;;;5025052;28;20440;-70
2023/03/09 07:16:52;;;;;;;0.60;0.45;;;;;;;;;;5022784;28;20510;-70
2023/03/09 07:19:20;;;;;;;0.60;0.60;;;;;;;;;;5023063;28;20439;-71
2023/03/09 07:21:47;;;;;;;0.30;0.30;;;;;;;;;;5023416;28;20514;-71
2023/03/09 07:24:14;;;;;;;0.60;0.40;;;;;;;;;;5025156;28;20430;-75
2023/03/09 07:26:55;;;;;;;2.80;0.70;;;;;;;;;;5021709;28;20435;-69
2023/03/09 07:29:22;;;;;;;0.43;0.43;;;;;;;;;;5021890;28;20457;-70
2023/03/09 07:31:49;;;;;;;0.20;0.20;;;;;;;;;;5011984;28;21020;-69
2023/03/09 07:34:17;;;;;;;0.40;0.40;;;;;;;;;;5018288;28;20432;-71
2023/03/09 07:36:44;;;;;;;0.30;0.30;;;;;;;;;;5014997;28;20435;-71
2023/03/09 07:39:11;;;;;;;0.43;0.38;;;;;;;;;;5021095;28;20431;-71
2023/03/09 07:41:38;;;;;;;0.35;0.35;;;;;;;;;;5015207;28;20427;-71
2023/03/09 07:47:17;;;;;;;1.10;0.30;;;;;;;;;;5013576;28;20424;-71
2023/03/09 07:49:45;;;;;;;0.57;0.32;;;;;;;;;;5022465;28;20557;-71
2023/03/09 07:52:12;;;;;;;2.60;0.40;;;;;;;;;;5021370;28;20437;-70
2023/03/09 07:54:42;;;;;;;0.10;0.10;;;;;;;;;;5024124;28;21187;-71
2023/03/09 07:57:09;;;;;;;0.30;0.30;;;;;;;;;;5011906;28;20439;-71
2023/03/09 07:59:36;;;;;;;2.27;0.57;;;;;;;;;;5016227;28;20439;-71
2023/03/09 08:02:06;;;;;;;0.80;0.55;;;;;;;;;;5019905;28;20441;-71
2023/03/09 08:04:34;;;;;;;0.10;0.10;;;;;;;;;;5020617;28;20473;-71
2023/03/09 08:07:04;;;;;;;0.20;0.20;;;;;;;;;;5020442;28;20442;-71
2023/03/09 08:09:31;;;;;;;0.20;0.20;;;;;;;;;;5026416;28;20451;-71
2023/03/09 08:11:58;;;;;;;0.20;0.20;;;;;;;;;;5020581;28;20983;-71
2023/03/09 08:14:26;;;;;;;0.50;0.30;;;;;;;;;;5027279;28;20783;-71
2023/03/09 08:16:53;;;;;;;0.40;0.40;;;;;;;;;;5022346;28;21149;-71
2023/03/09 08:19:21;;;;;;;1.20;0.20;;;;;;;;;;5025426;28;20426;-71
2023/03/09 08:21:49;;;;;;;0.30;0.30;;;;;;;;;;5023689;28;20484;-71
2023/03/09 08:24:16;;;;;;;0.22;0.22;;;;;;;;;;5029309;28;20481;-71
2023/03/09 08:26:46;;;;;;;0.10;0.10;;;;;;;;;;5026606;28;20488;-71
2023/03/09 08:29:13;;;;;;;0.30;0.30;;;;;;;;;;5016101;28;20816;-71
2023/03/09 08:31:41;;;;;;;0.10;0.10;;;;;;;;;;5022895;28;20443;-71
2023/03/09 08:34:08;;;;;;;0.30;0.30;;;;;;;;;;5015571;28;21073;-71
2023/03/09 08:36:35;;;;;;;0.10;0.10;;;;;;;;;;5025101;28;20430;-71
2023/03/09 08:39:03;;;;;;;0.10;0.10;;;;;;;;;;5028807;28;20438;-71
2023/03/09 08:41:30;;;;;;;0.50;0.50;;;;;;;;;;5023907;28;20522;-71
2023/03/09 08:43:57;;;;;;;0.50;0.50;;;;;;;;;;5021410;28;20513;-71
2023/03/09 08:46:25;;;;;;;0.20;0.20;;;;;;;;;;5025509;28;20437;-71
2023/03/09 08:48:52;;;;;;;0.25;0.25;;;;;;;;;;5025830;28;20422;-71
2023/03/09 08:51:19;;;;;;;0.10;0.10;;;;;;;;;;5025263;28;20431;-71
2023/03/09 08:53:46;;;;;;;0.22;0.22;;;;;;;;;;5028421;28;20501;-71
2023/03/09 08:56:13;;;;;;;0.43;0.43;;;;;;;;;;5027955;28;20501;-71
2023/03/09 08:58:40;;;;;;;0.90;0.70;;;;;;;;;;5025874;28;20435;-71
2023/03/09 09:01:08;;;;;;;2.60;0.30;;;;;;;;;;5028828;28;20534;-71
2023/03/09 09:03:39;;;;;;;0.40;0.40;;;;;;;;;;5014764;28;20460;-71
2023/03/09 09:06:08;;;;;;;0.23;0.23;;;;;;;;;;5019690;28;20727;-71
2023/03/09 09:08:36;;;;;;;0.30;0.30;;;;;;;;;;5029198;28;20510;-71
2023/03/09 09:11:13;;;;;;;0.27;0.27;;;;;;;;;;5025848;28;20438;-71
2023/03/09 09:13:41;;;;;;;0.10;0.10;;;;;;;;;;5015039;28;20427;-71
2023/03/09 09:16:09;;;;;;;0.40;0.40;;;;;;;;;;5032354;28;20431;-71
2023/03/09 09:18:36;;;;;;;0.20;0.20;;;;;;;;;;5024462;28;20492;-71
2023/03/09 09:21:10;;;;;;;0.17;0.17;;;;;;;;;;5029617;28;20497;-71
2023/03/09 09:23:38;;;;;;;1.70;0.50;;;;;;;;;;5023579;28;20499;-71
2023/03/09 09:26:05;;;;;;;0.10;0.10;;;;;;;;;;5023115;28;20937;-71
2023/03/09 09:28:32;;;;;;;0.20;0.20;;;;;;;;;;5030077;28;20449;-71
2023/03/09 09:31:01;;;;;;;0.40;0.40;;;;;;;;;;5027932;28;21151;-71
2023/03/09 09:33:31;;;;;;;0.10;0.10;;;;;;;;;;5030138;28;20452;-71
2023/03/09 09:36:05;;;;;;;0.60;0.30;;;;;;;;;;5022913;28;21117;-71
2023/03/09 09:38:36;;;;;;;1.10;0.50;;;;;;;;;;5026223;28;20465;-71
2023/03/09 09:41:06;;;;;;;0.30;0.30;;;;;;;;;;5022491;28;20446;-71
2023/03/09 09:43:34;;;;;;;0.20;0.20;;;;;;;;;;5029930;28;20481;-71
2023/03/09 09:46:10;;;;;;;0.30;0.30;;;;;;;;;;5023138;28;20807;-71
2023/03/09 09:48:40;;;;;;;0.20;0.20;;;;;;;;;;5023071;28;20430;-71
2023/03/09 09:51:15;;;;;;;0.90;0.40;;;;;;;;;;5028148;28;20434;-71
2023/03/09 09:54:01;;;;;;;0.38;0.25;;;;;;;;;;5030577;28;20614;-72
2023/03/09 09:56:40;;;;;;;0.40;0.40;;;;;;;;;;5022248;28;20525;-69
2023/03/09 09:59:13;;;;;;;1.05;0.68;;;;;;;;;;5025183;28;20454;-68
2023/03/09 10:02:01;;;;;;;0.20;0.20;;;;;;;;;;5026691;28;20431;-68
2023/03/09 10:04:31;;;;;;;1.40;0.40;;;;;;;;;;5029688;28;20814;-70
2023/03/09 10:07:00;;;;;;;0.20;0.20;;;;;;;;;;5029852;28;20510;-70
2023/03/09 10:09:29;;;;;;;0.20;0.20;;;;;;;;;;5028655;28;20455;-70
2023/03/09 10:12:06;;;;;;;1.48;1.15;;;;;;;;;;5026788;28;20442;-70
2023/03/09 10:14:35;;;;;;;0.35;0.30;;;;;;;;;;5027915;28;20462;-70
2023/03/09 10:17:15;;;;;;;0.20;0.20;;;;;;;;;;5025660;28;20435;-70
2023/03/09 10:19:43;;;;;;;0.40;0.40;;;;;;;;;;5028068;28;20541;-70
2023/03/09 10:22:16;;;;;;;0.20;0.20;;;;;;;;;;5025533;28;20477;-72
2023/03/09 10:24:50;;;;;;;0.20;0.20;;;;;;;;;;5032612;28;20457;-70
2023/03/09 10:27:17;;;;;;;0.70;0.40;;;;;;;;;;5026794;28;20969;-70
2023/03/09 10:29:55;;;;;;;0.30;0.30;;;;;;;;;;5033146;28;20813;-70
2023/03/09 10:32:57;;;;;;;0.50;0.50;;;;;;;;;;5022308;28;20431;-70
2023/03/09 10:35:37;;;;;;;2.20;0.40;;;;;;;;;;5028286;28;20489;-72
2023/03/09 10:38:04;;;;;;;0.40;0.40;;;;;;;;;;5025270;28;20487;-70
2023/03/09 10:40:36;;;;;;;0.28;0.28;;;;;;;;;;5034134;28;20438;-72
2023/03/09 10:43:05;;;;;;;0.35;0.35;;;;;;;;;;5033403;28;20506;-72
2023/03/09 10:45:32;;;;;;;0.57;0.40;;;;;;;;;;5027906;28;20441;-70
2023/03/09 10:47:59;;;;;;;0.30;0.30;;;;;;;;;;5027360;28;20419;-72
2023/03/09 10:50:31;;;;;;;0.10;0.10;;;;;;;;;;5028420;28;20430;-70
2023/03/09 10:53:19;;;;;;;0.20;0.20;;;;;;;;;;5017561;28;20441;-70
2023/03/09 10:55:47;;;;;;;0.30;0.30;;;;;;;;;;5028197;28;20447;-73
2023/03/09 10:58:23;;;;;;;1.40;0.40;;;;;;;;;;5028331;28;20438;-71
2023/03/09 11:01:19;;;;;;;0.28;0.28;;;;;;;;;;5025614;28;20514;-71
2023/03/09 11:03:46;;;;;;;0.30;0.30;;;;;;;;;;5022071;28;20542;-70
2023/03/09 11:06:13;;;;;;;0.60;0.60;;;;;;;;;;5016644;28;20444;-71
2023/03/09 11:08:53;;;;;;;0.22;0.22;;;;;;;;;;5022655;28;20429;-71
2023/03/09 11:11:39;;;;;;;0.50;0.30;;;;;;;;;;5025458;28;20430;-70
2023/03/09 11:14:25;;;;;;;0.20;0.20;;;;;;;;;;5028711;28;20434;-71
2023/03/09 11:17:00;;;;;;;0.30;0.30;;;;;;;;;;5023848;28;20518;-70
2023/03/09 11:19:28;;;;;;;1.00;0.40;;;;;;;;;;5021720;28;20445;-71
2023/03/09 11:22:01;;;;;;;1.60;0.35;;;;;;;;;;5019540;28;21606;-70
2023/03/09 11:24:31;;;;;;;0.38;0.30;;;;;;;;;;5028935;28;20837;-71
2023/03/09 11:27:04;;;;;;;0.50;0.40;;;;;;;;;;5024932;28;20431;-70
2023/03/09 11:29:43;;;;;;;1.92;0.40;;;;;;;;;;5023180;28;20513;-71
2023/03/09 11:32:11;;;;;;;0.30;0.30;;;;;;;;;;5027125;28;20431;-71
2023/03/09 11:34:43;;;;;;;0.20;0.20;;;;;;;;;;5026220;28;20439;-72
2023/03/09 11:37:23;;;;;;;0.20;0.20;;;7.10;99.90;;;;;;5029487;28;20438;-72
2023/03/09 11:39:57;;;;;;;0.40;0.40;;;;;;;;;;5023303;28;20980;-72
2023/03/09 11:42:33;;;;;;;0.10;0.10;;;;;;;;;;5022868;28;20449;-72
2023/03/09 11:45:01;;;;;;;0.73;0.35;;;;;;;;;;5020865;28;20432;-72
2023/03/09 11:47:38;;;;;;;0.40;0.35;;;;;;;;;;5024421;28;20821;-72
2023/03/09 11:50:17;;;;;;;1.25;0.65;;;14.50;99.90;;;;;;5028453;28;20874;-72
2023/03/09 11:52:51;;;;;;;0.93;0.75;;;16.40;99.90;;;;;;5021778;28;20960;-71
2023/03/09 11:55:22;;;;;;;0.30;0.30;;;16.70;99.90;;;;;;5023953;28;20960;-71
2023/03/09 11:57:56;;;;;;;0.20;0.20;;;16.40;99.90;;;;;;5015207;28;20426;-71
2023/03/09 12:00:23;;;;;;;0.40;0.30;;;17.10;99.90;;;;;;5019500;28;22709;-72
2023/03/09 12:03:15;;;;;;;0.15;0.15;;;17.70;99.90;;;;;;5016814;28;20438;-71
2023/03/09 12:05:49;;;;;;;0.10;0.10;;;17.60;99.90;;;;;;5014832;28;20960;-71
2023/03/09 12:08:46;;;;;;;0.30;0.30;;;16.80;99.90;;;;;;5020503;28;20488;-72
2023/03/09 12:11:31;;;;;;;0.20;0.20;;;15.80;99.90;;;;;;5021730;28;20995;-72
2023/03/09 12:14:22;;;;;;;0.50;0.30;;;15.40;99.90;;;;;;5026568;28;20434;-74
2023/03/09 12:16:51;;;;;;;1.50;0.30;;;;;;;;;;5022097;28;20433;-74
2023/03/09 12:19:20;;;;;;;0.50;0.50;;;;;;;;;;5024027;28;20425;-74
2023/03/09 12:21:52;;;;;;;0.52;0.47;;;;;;;;;;5024591;28;20427;-73
2023/03/09 12:24:32;;;;;;;0.30;0.30;;;;;;;;;;5029336;28;20438;-72
2023/03/09 12:27:13;;;;;;;0.55;0.40;;;;;;;;;;5029326;28;20456;-72
2023/03/09 12:29:46;;;;;;;0.30;0.30;;;;;;;;;;5029298;28;20521;-73
2023/03/09 12:32:18;;;;;;;0.20;0.20;;;;;;;;;;5034561;28;20516;-72
2023/03/09 12:34:46;;;;;;;1.20;0.40;;;;;;;;;;5026438;28;21117;-72
2023/03/09 12:37:40;;;;;;;0.82;0.30;;;;;;;;;;5017442;28;20429;-71
2023/03/09 12:40:20;;;;;;;0.67;0.67;;;;;;;;;;5019692;28;20463;-72
2023/03/09 12:42:49;;;;;;;0.27;0.27;;;;;;;;;;5031210;28;20922;-72
2023/03/09 12:45:19;;;;;;;3.10;0.30;;;;;;;;;;5025929;28;20438;-71
2023/03/09 12:47:51;;;;;;;0.38;0.35;;;;;;;;;;5029076;28;20422;-71
2023/03/09 12:50:37;;;;;;;2.83;0.52;;;;;;;;;;5030495;28;20980;-74
2023/03/09 12:53:21;;;;;;;0.38;0.38;;;;;;;;;;5023510;28;20487;-72
2023/03/09 12:55:55;;;;;;;2.30;0.30;;;;;;;;;;5028678;28;20431;-74
2023/03/09 12:58:24;;;;;;;2.97;0.40;;;;;;;;;;5024025;28;20953;-72
2023/03/09 13:00:56;;;;;;;0.90;0.40;;;;;;;;;;5025849;28;20434;-72
2023/03/09 13:03:25;;;;;;;0.30;0.30;;;;;;;;;;5026534;28;20432;-72
2023/03/09 13:05:52;;;;;;;2.22;0.68;;;;;;;;;;5032234;28;20913;-72
2023/03/09 13:08:22;;;;;;;0.40;0.30;;;;;;;;;;5031581;28;20793;-72
2023/03/09 13:10:49;;;;;;;0.47;0.30;;;;;;;;;;5030324;28;20442;-72
2023/03/09 13:13:35;;;;;;;1.90;0.60;;;;;;;;;;5024716;28;20522;-71
2023/03/09 13:16:38;;;;;;;1.10;0.60;;;15.00;99.90;;;;;;5025014;28;20527;-72
2023/03/09 13:19:18;;;;;;;0.40;0.40;;;;;;;;;;5027375;28;20435;-72
2023/03/09 13:21:52;;;;;;;1.05;0.30;;;18.00;99.90;;;;;;5017663;28;21122;-73
2023/03/09 13:24:21;;;;;;;0.30;0.30;;;;;;;;;;5025939;28;20435;-72
2023/03/09 13:26:49;;;;;;;0.40;0.40;;;;;;;;;;5025267;28;20434;-74
2023/03/09 13:29:18;;;;;;;4.10;0.40;;;;;;;;;;5017393;28;20456;-72
2023/03/09 13:31:46;;;;;;;0.20;0.20;;;;;;;;;;5036765;28;20509;-73
2023/03/09 13:34:17;;;;;;;2.20;0.70;;;;;;;;;;5023345;28;20439;-71
2023/03/09 13:36:45;;;;;;;1.50;0.50;;;;;;;;;;5021910;28;20435;-70
2023/03/09 13:39:16;;;;;;;2.00;0.50;;;;;;;;;;5028742;28;20434;-71
2023/03/09 13:41:44;;;;;;;1.10;0.30;;;17.60;99.90;;;;;;5023717;28;20499;-72
2023/03/09 13:44:20;;;;;;;0.37;0.37;;;17.30;99.90;;;;;;5027103;28;20434;-72
2023/03/09 13:46:49;;;;;;;4.70;0.77;;;17.20;99.90;;;;;;5021656;28;20517;-73
2023/03/09 13:49:25;;;;;;;2.65;0.75;;;16.90;99.90;;;;;;5025982;28;20427;-73
2023/03/09 13:51:55;;;;;;;1.25;0.45;;;16.40;99.90;;;;;;5024778;28;20438;-73
2023/03/09 13:54:34;;;;;;;0.80;0.60;;;15.80;99.90;;;;;;5018370;28;20436;-73
2023/03/09 13:57:03;;;;;;;1.80;0.70;;;;;;;;;;5021409;28;21187;-72
2023/03/09 13:59:42;;;;;;;0.55;0.55;;;;;;;;;;5032937;28;20524;-72
2023/03/09 14:02:11;;;;;;;2.40;0.50;;;;;;;;;;5027113;28;20921;-71
2023/03/09 14:04:49;;;;;;;0.60;0.43;;;;;;;;;;5027796;28;20437;-73
2023/03/09 14:07:21;;;;;;;0.50;0.50;;;;;;;;;;5023630;28;20527;-72
2023/03/09 14:10:03;;;;;;;0.20;0.20;;;;;;;;;;5021345;28;21090;-72
2023/03/09 14:12:32;;;;;;;0.20;0.13;;;;;;;;;;5022633;28;20514;-71
2023/03/09 14:15:01;;;;;;;0.22;0.22;;;;;;;;;;5019737;28;20526;-71
2023/03/09 14:17:29;;;;;;;1.40;0.55;;;;;;;;;;5024305;28;20438;-73
2023/03/09 14:19:59;;;;;;;0.20;0.20;;;;;;;;;;5020365;28;20527;-71
2023/03/09 14:22:31;;;;;;;3.90;0.50;;;;;;;;;;5027423;28;20477;-71
2023/03/09 14:25:00;;;;;;;0.30;0.30;;;;;;;;;;5026652;28;20439;-71
2023/03/09 14:27:34;;;;;;;0.30;0.30;;;;;;;;;;5023650;28;20435;-71
2023/03/09 14:30:23;;;;;;;1.10;0.90;;;;;;;;;;5028398;28;20485;-71
2023/03/09 14:33:03;;;;;;;0.20;0.20;;;;;;;;;;5026064;28;20439;-71
2023/03/09 14:35:32;;;;;;;2.70;0.50;;;;;;;;;;5025540;28;20500;-71
2023/03/09 14:38:00;;;;;;;0.57;0.57;;;;;;;;;;5018541;28;20432;-72
2023/03/09 14:40:28;;;;;;;0.28;0.28;;;;;;;;;;5028333;28;20477;-71
2023/03/09 14:43:16;;;;;;;0.50;0.50;;;;;;;;;;4965635;28;1775688;-71
2023/03/09 14:45:43;;;;;;;0.60;0.60;;;;;;;;;;5018758;28;20431;-71
2023/03/09 14:48:10;;;;;;;1.45;0.22;;;;;;;;;;5026794;28;20437;-72
2023/03/09 14:50:39;;;;;;;2.20;0.30;;;;;;;;;;5019601;28;20457;-71
2023/03/09 14:53:06;;;;;;;1.60;0.40;;;;;;;;;;5020250;28;20437;-72
2023/03/09 14:55:33;;;;;;;1.20;0.70;;;;;;;;;;5030456;28;20438;-72
2023/03/09 14:58:00;;;;;;;0.63;0.63;;;;;;;;;;5015414;28;21079;-72